This is the latest recevied weather packets stored in our database for station/object WA6GRA. If no packets are shown the sender has not sent any weather packets the latest 10 day(s).
| Time | Temp. | Humidity | Pressure | Rain* | Wind** | Luminosity | Snow |
|---|---|---|---|---|---|---|---|
| 1777530334 | 17.78° C | 63% | 1014 hPa | 0 mm | - | 0 W/m² | - |
| 1777529734 | 17.78° C | 61% | 1013.8 hPa | 0 mm | - | 0 W/m² | - |
| 1777529133 | 18.33° C | 60% | 1014.1 hPa | 0 mm | - | 0 W/m² | - |
| 1777528531 | 18.89° C | 59% | 1013.9 hPa | 0 mm | - | 0 W/m² | - |
| 1777527926 | 18.89° C | 58% | 1014.1 hPa | 0 mm | - | 0 W/m² | - |
| 1777527323 | 18.89° C | 59% | 1014 hPa | 0 mm | - | 0 W/m² | - |
| 1777526721 | 18.89° C | 61% | 1014.3 hPa | 0 mm | - | 0 W/m² | - |
| 1777526117 | 18.89° C | 58% | 1014.1 hPa | 0 mm | - | 0 W/m² | - |
| 1777525517 | 19.44° C | 58% | 1013.8 hPa | 0 mm | - | 0 W/m² | - |
| 1777524915 | 18.89° C | 59% | 1014 hPa | 0 mm | - | 0 W/m² | - |
| 1777524311 | 18.89° C | 60% | 1013.8 hPa | 0 mm | - | 0 W/m² | - |
| 1777523709 | 19.44° C | 59% | 1014 hPa | 0 mm | - | 0 W/m² | - |
| 1777523108 | 19.44° C | 59% | 1013.7 hPa | 0 mm | - | 0 W/m² | - |
| 1777522507 | 20° C | 59% | 1013.5 hPa | 0 mm | - | 0 W/m² | - |
| 1777521906 | 20.56° C | 55% | 1013.5 hPa | 0 mm | - | 0 W/m² | - |
| 1777521306 | 20.56° C | 55% | 1013.4 hPa | 0 mm | - | 0 W/m² | - |
| 1777520706 | 21.67° C | 49% | 1013.2 hPa | 0 mm | - | 0 W/m² | - |
| 1777520106 | 22.22° C | 47% | 1013 hPa | 0 mm | - | 0 W/m² | - |
| 1777519500 | 22.78° C | 45% | 1013 hPa | 0 mm | - | 0 W/m² | - |
| 1777518898 | 22.78° C | 44% | 1012.7 hPa | 0 mm | - | 0 W/m² | - |
| 1777518295 | 23.33° C | 42% | 1012.7 hPa | 0 mm | - | 0 W/m² | - |
| 1777517694 | 23.89° C | 40% | 1012.6 hPa | 0 mm | - | 1 W/m² | - |
| 1777517090 | 23.89° C | 38% | 1012.5 hPa | 0 mm | - | 4 W/m² | - |
| 1777516490 | 24.44° C | 37% | 1012.5 hPa | 0 mm | - | 10 W/m² | - |
| 1777515889 | 25° C | 35% | 1012.6 hPa | 0 mm | - | 18 W/m² | - |
* Rain latest hour (hover to see other rain measurements)
** Current wind speed in m/s (hover to see current wind gust speed)